createdAt,value
2023-02-16T00:00:21.935Z,1011.91
2023-02-16T00:01:21.907Z,1011.91
2023-02-16T00:02:21.914Z,1011.94
2023-02-16T00:03:21.925Z,1011.94
2023-02-16T00:04:21.810Z,1011.95
2023-02-16T00:05:21.768Z,1011.93
2023-02-16T00:06:21.746Z,1011.93
2023-02-16T00:07:21.701Z,1011.91
2023-02-16T00:08:21.669Z,1011.95
2023-02-16T00:09:21.636Z,1011.98
2023-02-16T00:10:21.605Z,1011.92
2023-02-16T00:11:21.571Z,1011.95
2023-02-16T00:12:21.543Z,1011.91
2023-02-16T00:13:21.509Z,1011.88
2023-02-16T00:14:21.474Z,1011.88
2023-02-16T00:15:21.444Z,1011.83
2023-02-16T00:16:21.476Z,1011.87
2023-02-16T00:17:21.375Z,1011.91
2023-02-16T00:18:21.376Z,1011.88
2023-02-16T00:19:21.312Z,1011.84
2023-02-16T00:20:21.281Z,1011.84
2023-02-16T00:21:21.247Z,1011.87
2023-02-16T00:22:21.213Z,1011.87
2023-02-16T00:23:21.180Z,1011.89
2023-02-16T00:24:21.149Z,1011.87
2023-02-16T00:25:21.135Z,1011.82
2023-02-16T00:26:21.085Z,1011.82
2023-02-16T00:27:21.050Z,1011.77
2023-02-16T00:28:21.020Z,1011.74
2023-02-16T00:29:20.986Z,1011.78
2023-02-16T00:30:21.013Z,1011.7
2023-02-16T00:31:21.020Z,1011.69
2023-02-16T00:32:20.949Z,1011.63
2023-02-16T00:33:20.882Z,1011.64
2023-02-16T00:34:20.859Z,1011.7
2023-02-16T00:35:20.791Z,1011.66
2023-02-16T00:36:20.763Z,1011.64
2023-02-16T00:37:20.728Z,1011.64
2023-02-16T00:38:20.696Z,1011.71
2023-02-16T00:39:20.669Z,1011.65
2023-02-16T00:40:20.630Z,1011.65
2023-02-16T00:41:20.599Z,1011.66
2023-02-16T00:42:20.568Z,1011.7
2023-02-16T00:43:20.532Z,1011.63
2023-02-16T00:44:20.500Z,1011.6
2023-02-16T00:45:20.466Z,1011.58
2023-02-16T00:46:20.435Z,1011.58
2023-02-16T00:47:20.399Z,1011.61
2023-02-16T00:48:20.369Z,1011.62
2023-02-16T00:49:20.343Z,1011.61
2023-02-16T00:50:20.468Z,1011.66
2023-02-16T00:51:25.688Z,1011.62
2023-02-16T00:52:20.238Z,1011.58
2023-02-16T00:53:20.207Z,1011.56
2023-02-16T00:54:20.171Z,1011.59
2023-02-16T00:55:20.139Z,1011.62
2023-02-16T00:56:20.106Z,1011.62
2023-02-16T00:57:20.081Z,1011.62
2023-02-16T00:58:20.040Z,1011.56
2023-02-16T00:59:20.010Z,1011.57
2023-02-16T01:00:19.976Z,1011.57
2023-02-16T01:01:19.987Z,1011.58
2023-02-16T01:02:19.907Z,1011.57
2023-02-16T01:03:19.877Z,1011.61
2023-02-16T01:04:19.870Z,1011.62
2023-02-16T01:05:19.808Z,1011.57
2023-02-16T01:06:19.802Z,1011.61
2023-02-16T01:07:19.742Z,1011.64
2023-02-16T01:08:19.707Z,1011.62
2023-02-16T01:09:19.676Z,1011.61
2023-02-16T01:10:19.645Z,1011.64
2023-02-16T01:11:19.609Z,1011.63
2023-02-16T01:12:19.576Z,1011.6
2023-02-16T01:13:19.542Z,1011.58
2023-02-16T01:14:19.510Z,1011.6
2023-02-16T01:15:19.482Z,1011.56
2023-02-16T01:16:19.537Z,1011.62
2023-02-16T01:17:19.415Z,1011.62
2023-02-16T01:18:19.376Z,1011.58
2023-02-16T01:19:19.343Z,1011.6
2023-02-16T01:20:19.323Z,1011.59
2023-02-16T01:21:19.281Z,1011.6
2023-02-16T01:22:19.324Z,1011.64
2023-02-16T01:23:19.211Z,1011.59
2023-02-16T01:24:19.182Z,1011.58
2023-02-16T01:25:19.146Z,1011.6
2023-02-16T01:26:19.113Z,1011.63
2023-02-16T01:27:19.085Z,1011.64
2023-02-16T01:28:19.046Z,1011.61
2023-02-16T01:29:19.020Z,1011.57
2023-02-16T01:30:19.112Z,1011.61
2023-02-16T01:31:19.044Z,1011.6
2023-02-16T01:32:19.140Z,1011.58
2023-02-16T01:33:18.889Z,1011.56
2023-02-16T01:34:18.848Z,1011.58
2023-02-16T01:35:18.816Z,1011.58
2023-02-16T01:36:18.783Z,1011.56
2023-02-16T01:37:18.752Z,1011.54
2023-02-16T01:38:18.871Z,1011.52
2023-02-16T01:39:18.701Z,1011.57
2023-02-16T01:40:18.652Z,1011.55
2023-02-16T01:41:18.620Z,1011.51
2023-02-16T01:42:18.589Z,1011.54
2023-02-16T01:43:18.565Z,1011.54
2023-02-16T01:44:18.523Z,1011.57
2023-02-16T01:45:18.493Z,1011.53
2023-02-16T01:46:18.476Z,1011.55
2023-02-16T01:47:18.423Z,1011.55
2023-02-16T01:48:18.390Z,1011.52
2023-02-16T01:49:18.359Z,1011.53
2023-02-16T01:50:18.328Z,1011.52
2023-02-16T01:51:18.291Z,1011.53
2023-02-16T01:52:18.258Z,1011.5
2023-02-16T01:53:18.223Z,1011.48
2023-02-16T01:54:18.222Z,1011.48
2023-02-16T01:55:18.160Z,1011.46
2023-02-16T01:56:18.127Z,1011.48
2023-02-16T01:57:18.092Z,1011.47
2023-02-16T01:58:18.062Z,1011.49
2023-02-16T01:59:18.066Z,1011.45
2023-02-16T02:00:18.001Z,1011.44
2023-02-16T02:01:17.983Z,1011.48
2023-02-16T02:02:17.929Z,1011.44
2023-02-16T02:03:17.896Z,1011.4
2023-02-16T02:04:17.867Z,1011.43
2023-02-16T02:05:17.828Z,1011.4
2023-02-16T02:06:17.801Z,1011.39
2023-02-16T02:07:17.769Z,1011.41
2023-02-16T02:08:17.733Z,1011.41
2023-02-16T02:09:17.698Z,1011.39
2023-02-16T02:10:17.687Z,1011.37
2023-02-16T02:11:17.632Z,1011.36
2023-02-16T02:12:17.601Z,1011.37
2023-02-16T02:13:17.564Z,1011.42
2023-02-16T02:14:17.531Z,1011.4
2023-02-16T02:15:17.501Z,1011.36
2023-02-16T02:16:17.489Z,1011.36
2023-02-16T02:17:17.436Z,1011.37
2023-02-16T02:18:17.411Z,1011.31
2023-02-16T02:19:17.380Z,1011.28
2023-02-16T02:20:17.356Z,1011.3
2023-02-16T02:21:17.298Z,1011.3
2023-02-16T02:22:17.268Z,1011.28
2023-02-16T02:23:17.233Z,1011.29
2023-02-16T02:24:17.202Z,1011.31
2023-02-16T02:25:17.167Z,1011.3
2023-02-16T02:26:17.160Z,1011.28
2023-02-16T02:27:17.100Z,1011.28
2023-02-16T02:28:17.070Z,1011.26
2023-02-16T02:29:17.040Z,1011.25
2023-02-16T02:30:17.099Z,1011.29
2023-02-16T02:31:17.146Z,1011.26
2023-02-16T02:32:17.005Z,1011.29
2023-02-16T02:33:16.908Z,1011.32
2023-02-16T02:34:16.870Z,1011.34
2023-02-16T02:35:16.836Z,1011.37
2023-02-16T02:36:16.953Z,1011.36
2023-02-16T02:37:16.773Z,1011.39
2023-02-16T02:38:16.739Z,1011.4
2023-02-16T02:39:16.716Z,1011.39
2023-02-16T02:40:16.669Z,1011.43
2023-02-16T02:41:16.638Z,1011.41
2023-02-16T02:42:16.636Z,1011.38
2023-02-16T02:43:16.579Z,1011.38
2023-02-16T02:44:16.536Z,1011.35
2023-02-16T02:45:16.504Z,1011.32
2023-02-16T02:46:16.498Z,1011.3
2023-02-16T02:47:16.441Z,1011.3
2023-02-16T02:48:16.417Z,1011.28
2023-02-16T02:49:16.373Z,1011.24
2023-02-16T02:50:16.338Z,1011.22
2023-02-16T02:51:16.306Z,1011.25
2023-02-16T02:52:16.274Z,1011.21
2023-02-16T02:53:16.242Z,1011.27
2023-02-16T02:54:16.214Z,1011.22
2023-02-16T02:55:16.174Z,1011.21
2023-02-16T02:56:16.138Z,1011.24
2023-02-16T02:57:16.108Z,1011.21
2023-02-16T02:58:16.095Z,1011.19
2023-02-16T02:59:16.061Z,1011.13
2023-02-16T03:00:16.010Z,1011.15
2023-02-16T03:01:15.999Z,1011.12
2023-02-16T03:02:15.972Z,1011.17
2023-02-16T03:03:15.915Z,1011.16
2023-02-16T03:04:15.873Z,1011.15
2023-02-16T03:05:15.841Z,1011.11
2023-02-16T03:06:15.809Z,1011.09
2023-02-16T03:07:15.774Z,1011.13
2023-02-16T03:08:15.744Z,1011.13
2023-02-16T03:09:15.708Z,1011.16
2023-02-16T03:10:15.675Z,1011.14
2023-02-16T03:11:15.642Z,1011.14
2023-02-16T03:12:15.606Z,1011.16
2023-02-16T03:13:15.577Z,1011.14
2023-02-16T03:14:15.581Z,1011.08
2023-02-16T03:15:15.510Z,1011.08
2023-02-16T03:16:15.533Z,1011.07
2023-02-16T03:17:15.448Z,1011.06
2023-02-16T03:18:15.417Z,1011.05
2023-02-16T03:19:15.375Z,1011.09
2023-02-16T03:20:15.343Z,1011.08
2023-02-16T03:21:15.308Z,1011.09
2023-02-16T03:22:15.284Z,1011.09
2023-02-16T03:23:15.246Z,1011.07
2023-02-16T03:24:15.205Z,1011.11
2023-02-16T03:25:15.174Z,1011.05
2023-02-16T03:26:15.139Z,1011.09
2023-02-16T03:27:15.111Z,1011.1
2023-02-16T03:28:15.086Z,1011.1
2023-02-16T03:29:15.042Z,1011.09
2023-02-16T03:30:15.054Z,1011.07
2023-02-16T03:31:15.083Z,1011.06
2023-02-16T03:32:15.021Z,1011.05
2023-02-16T03:33:14.906Z,1010.99
2023-02-16T03:34:14.874Z,1010.99
2023-02-16T03:35:14.844Z,1010.96
2023-02-16T03:36:14.807Z,1010.96
2023-02-16T03:37:14.772Z,1010.95
2023-02-16T03:38:14.739Z,1010.95
2023-02-16T03:39:14.705Z,1010.9
2023-02-16T03:40:14.673Z,1010.9
2023-02-16T03:41:14.644Z,1010.87
2023-02-16T03:42:14.605Z,1010.8
2023-02-16T03:43:14.574Z,1010.8
2023-02-16T03:44:14.540Z,1010.78
2023-02-16T03:45:14.504Z,1010.76
2023-02-16T03:46:14.536Z,1010.77
2023-02-16T03:47:14.504Z,1010.72
2023-02-16T03:48:14.410Z,1010.7
2023-02-16T03:49:14.372Z,1010.72
2023-02-16T03:50:14.338Z,1010.72
2023-02-16T03:51:14.314Z,1010.73
2023-02-16T03:52:14.275Z,1010.73
2023-02-16T03:53:14.239Z,1010.77
2023-02-16T03:54:14.223Z,1010.82
2023-02-16T03:55:14.190Z,1010.76
2023-02-16T03:56:14.140Z,1010.83
2023-02-16T03:57:14.107Z,1010.81
2023-02-16T03:58:14.074Z,1010.8
2023-02-16T03:59:14.040Z,1010.79
2023-02-16T04:00:14.007Z,1010.76
2023-02-16T04:01:13.974Z,1010.76
2023-02-16T04:02:14.006Z,1010.77
2023-02-16T04:03:13.911Z,1010.72
2023-02-16T04:04:13.913Z,1010.77
2023-02-16T04:05:13.841Z,1010.74
2023-02-16T04:06:13.808Z,1010.73
2023-02-16T04:07:13.777Z,1010.8
2023-02-16T04:08:13.747Z,1010.74
2023-02-16T04:09:13.708Z,1010.77
2023-02-16T04:10:13.677Z,1010.72
2023-02-16T04:11:13.642Z,1010.73
2023-02-16T04:12:13.644Z,1010.78
2023-02-16T04:13:13.611Z,1010.78
2023-02-16T04:14:13.557Z,1010.83
2023-02-16T04:15:13.508Z,1010.8
2023-02-16T04:16:13.520Z,1010.81
2023-02-16T04:17:13.445Z,1010.86
2023-02-16T04:18:13.474Z,1010.85
2023-02-16T04:19:13.377Z,1010.89
2023-02-16T04:20:13.342Z,1010.87
2023-02-16T04:21:13.312Z,1010.83
2023-02-16T04:22:13.281Z,1010.85
2023-02-16T04:23:13.260Z,1010.88
2023-02-16T04:24:13.216Z,1010.96
2023-02-16T04:25:13.179Z,1010.94
2023-02-16T04:26:13.142Z,1010.93
2023-02-16T04:27:13.110Z,1010.92
2023-02-16T04:28:13.077Z,1010.88
2023-02-16T04:29:13.052Z,1010.9
2023-02-16T04:30:13.072Z,1010.89
2023-02-16T04:31:13.174Z,1010.92
2023-02-16T04:32:12.975Z,1010.88
2023-02-16T04:33:12.908Z,1010.86
2023-02-16T04:34:12.901Z,1010.87
2023-02-16T04:35:12.843Z,1010.85
2023-02-16T04:36:12.807Z,1010.81
2023-02-16T04:37:12.774Z,1010.84
2023-02-16T04:38:12.741Z,1010.79
2023-02-16T04:39:12.706Z,1010.83
2023-02-16T04:40:12.672Z,1010.76
2023-02-16T04:41:12.639Z,1010.76
2023-02-16T04:42:12.613Z,1010.73
2023-02-16T04:43:12.573Z,1010.71
2023-02-16T04:44:12.541Z,1010.67
2023-02-16T04:45:12.508Z,1010.63
2023-02-16T04:46:12.543Z,1010.67
2023-02-16T04:47:12.443Z,1010.69
2023-02-16T04:48:12.405Z,1010.68
2023-02-16T04:49:12.371Z,1010.66
2023-02-16T04:50:12.370Z,1010.64
2023-02-16T04:51:12.304Z,1010.6
2023-02-16T04:52:12.270Z,1010.67
2023-02-16T04:53:12.238Z,1010.63
2023-02-16T04:54:12.202Z,1010.66
2023-02-16T04:55:12.170Z,1010.68
2023-02-16T04:56:12.146Z,1010.68
2023-02-16T04:57:12.106Z,1010.7
2023-02-16T04:58:12.071Z,1010.68
2023-02-16T04:59:12.042Z,1010.7
2023-02-16T05:00:12.049Z,1010.71
2023-02-16T05:01:12.006Z,1010.69
2023-02-16T05:02:11.939Z,1010.62
2023-02-16T05:03:11.912Z,1010.64
2023-02-16T05:04:11.919Z,1010.66
2023-02-16T05:05:11.846Z,1010.62
2023-02-16T05:06:11.825Z,1010.59
2023-02-16T05:07:11.777Z,1010.57
2023-02-16T05:08:11.735Z,1010.58
2023-02-16T05:09:11.704Z,1010.57
2023-02-16T05:10:11.682Z,1010.6
2023-02-16T05:11:11.639Z,1010.63
2023-02-16T05:12:11.604Z,1010.61
2023-02-16T05:13:11.593Z,1010.57
2023-02-16T05:14:11.537Z,1010.6
2023-02-16T05:15:11.506Z,1010.59
2023-02-16T05:16:11.608Z,1010.58
2023-02-16T05:17:11.434Z,1010.54
2023-02-16T05:18:11.405Z,1010.56
2023-02-16T05:19:11.372Z,1010.62
2023-02-16T05:20:11.335Z,1010.62
2023-02-16T05:21:11.307Z,1010.69
2023-02-16T05:22:11.318Z,1010.69
2023-02-16T05:23:11.245Z,1010.73
2023-02-16T05:24:11.221Z,1010.72
2023-02-16T05:25:11.196Z,1010.72
2023-02-16T05:26:11.143Z,1010.71
2023-02-16T05:27:11.102Z,1010.74
2023-02-16T05:28:11.148Z,1010.73
2023-02-16T05:29:11.043Z,1010.76
2023-02-16T05:30:11.096Z,1010.76
2023-02-16T05:31:11.082Z,1010.79
2023-02-16T05:32:11.012Z,1010.8
2023-02-16T05:33:10.901Z,1010.81
2023-02-16T05:34:10.871Z,1010.82
2023-02-16T05:35:10.835Z,1010.81
2023-02-16T05:36:10.853Z,1010.74
2023-02-16T05:37:10.775Z,1010.78
2023-02-16T05:38:10.769Z,1010.79
2023-02-16T05:39:10.704Z,1010.81
2023-02-16T05:40:10.672Z,1010.8
2023-02-16T05:41:10.639Z,1010.75
2023-02-16T05:42:10.618Z,1010.79
2023-02-16T05:43:10.575Z,1010.83
2023-02-16T05:44:10.548Z,1010.78
2023-02-16T05:45:10.505Z,1010.79
2023-02-16T05:46:10.501Z,1010.78
2023-02-16T05:47:10.439Z,1010.78
2023-02-16T05:48:10.424Z,1010.79
2023-02-16T05:49:10.379Z,1010.83
2023-02-16T05:50:10.340Z,1010.85
2023-02-16T05:51:10.306Z,1010.87
2023-02-16T05:52:10.275Z,1010.87
2023-02-16T05:53:10.239Z,1010.85
2023-02-16T05:54:10.240Z,1010.86
2023-02-16T05:55:10.173Z,1010.8
2023-02-16T05:56:10.143Z,1010.81
2023-02-16T05:57:10.113Z,1010.79
2023-02-16T05:58:10.075Z,1010.75
2023-02-16T05:59:10.078Z,1010.69
2023-02-16T06:00:10.027Z,1010.71
2023-02-16T06:01:09.976Z,1010.7
2023-02-16T06:02:09.977Z,1010.7
2023-02-16T06:03:09.910Z,1010.67
2023-02-16T06:04:09.878Z,1010.72
2023-02-16T06:05:09.843Z,1010.73
2023-02-16T06:06:09.813Z,1010.72
2023-02-16T06:07:09.778Z,1010.75
2023-02-16T06:08:09.744Z,1010.77
2023-02-16T06:09:09.711Z,1010.8
2023-02-16T06:10:09.703Z,1010.78
2023-02-16T06:11:09.646Z,1010.79
2023-02-16T06:12:09.611Z,1010.84
2023-02-16T06:13:09.578Z,1010.82
2023-02-16T06:14:09.562Z,1010.85
2023-02-16T06:15:09.512Z,1010.84
2023-02-16T06:16:09.564Z,1010.86
2023-02-16T06:17:09.479Z,1010.85
2023-02-16T06:18:09.412Z,1010.89
2023-02-16T06:19:09.386Z,1010.89
2023-02-16T06:20:09.348Z,1010.88
2023-02-16T06:21:09.314Z,1010.83
2023-02-16T06:22:09.288Z,1010.83
2023-02-16T06:23:09.247Z,1010.87
2023-02-16T06:24:09.213Z,1010.85
2023-02-16T06:25:09.181Z,1010.83
2023-02-16T06:26:09.167Z,1010.84
2023-02-16T06:27:09.112Z,1010.82
2023-02-16T06:28:09.078Z,1010.75
2023-02-16T06:29:09.046Z,1010.74
2023-02-16T06:30:09.112Z,1010.72
2023-02-16T06:31:09.024Z,1010.72
2023-02-16T06:32:09.040Z,1010.82
2023-02-16T06:33:08.917Z,1010.89
2023-02-16T06:34:08.888Z,1010.9
2023-02-16T06:35:08.846Z,1010.94
2023-02-16T06:36:08.814Z,1010.91
2023-02-16T06:37:08.790Z,1010.87
2023-02-16T06:38:08.770Z,1010.84
2023-02-16T06:39:08.803Z,1010.81
2023-02-16T06:40:08.678Z,1010.87
2023-02-16T06:41:08.654Z,1010.82
2023-02-16T06:42:08.642Z,1010.79
2023-02-16T06:43:08.587Z,1010.82
2023-02-16T06:44:08.552Z,1010.82
2023-02-16T06:45:08.515Z,1010.81
2023-02-16T06:46:08.505Z,1010.82
2023-02-16T06:47:08.463Z,1010.8
2023-02-16T06:48:08.413Z,1010.85
2023-02-16T06:49:08.384Z,1010.84
2023-02-16T06:50:08.352Z,1010.83
2023-02-16T06:51:08.323Z,1010.8
2023-02-16T06:52:08.282Z,1010.81
2023-02-16T06:53:08.248Z,1010.8
2023-02-16T06:54:08.219Z,1010.83
2023-02-16T06:55:08.185Z,1010.81
2023-02-16T06:56:08.159Z,1010.87
2023-02-16T06:57:08.116Z,1010.88
2023-02-16T06:58:08.157Z,1010.85
2023-02-16T06:59:08.057Z,1010.8
2023-02-16T07:00:08.020Z,1010.83
2023-02-16T07:01:08.200Z,1010.83
2023-02-16T07:02:07.954Z,1010.8
2023-02-16T07:03:07.925Z,1010.85
2023-02-16T07:04:07.886Z,1010.83
2023-02-16T07:05:07.863Z,1010.83
2023-02-16T07:06:07.820Z,1010.83
2023-02-16T07:07:07.791Z,1010.88
2023-02-16T07:08:07.756Z,1010.89
2023-02-16T07:09:07.739Z,1010.91
2023-02-16T07:10:07.701Z,1010.9
2023-02-16T07:11:07.860Z,1010.88
2023-02-16T07:12:07.624Z,1010.9
2023-02-16T07:13:07.593Z,1010.91
2023-02-16T07:14:07.585Z,1010.91
2023-02-16T07:15:07.528Z,1010.86
2023-02-16T07:16:07.572Z,1010.83
2023-02-16T07:17:07.474Z,1010.8
2023-02-16T07:18:07.429Z,1010.75
2023-02-16T07:19:07.414Z,1010.77
2023-02-16T07:20:07.365Z,1010.77
2023-02-16T07:21:07.368Z,1010.78
2023-02-16T07:22:07.300Z,1010.82
2023-02-16T07:23:07.270Z,1010.79
2023-02-16T07:24:07.234Z,1010.83
2023-02-16T07:25:07.219Z,1010.85
2023-02-16T07:26:07.174Z,1010.82
2023-02-16T07:27:07.140Z,1010.85
2023-02-16T07:28:07.106Z,1010.89
2023-02-16T07:29:07.094Z,1010.9
2023-02-16T07:30:07.096Z,1010.91
2023-02-16T07:31:07.507Z,1010.89
2023-02-16T07:32:07.080Z,1010.91
2023-02-16T07:33:06.948Z,1010.9
2023-02-16T07:34:06.916Z,1010.93
2023-02-16T07:35:06.884Z,1010.9
2023-02-16T07:36:06.851Z,1010.93
2023-02-16T07:37:06.819Z,1010.91
2023-02-16T07:38:06.786Z,1010.93
2023-02-16T07:39:06.754Z,1010.94
2023-02-16T07:40:06.720Z,1010.97
2023-02-16T07:41:09.431Z,1010.98
2023-02-16T07:42:06.658Z,1011.01
2023-02-16T07:43:06.627Z,1011.01
2023-02-16T07:44:06.597Z,1011.01
2023-02-16T07:45:06.563Z,1011.03
2023-02-16T07:46:06.771Z,1011.07
2023-02-16T07:47:06.499Z,1011.04
2023-02-16T07:48:06.471Z,1011.02
2023-02-16T07:49:06.444Z,1011.03
2023-02-16T07:50:06.403Z,1010.97
2023-02-16T07:51:06.763Z,1010.96
2023-02-16T07:52:06.344Z,1010.92
2023-02-16T07:53:06.315Z,1010.9
2023-02-16T07:54:06.275Z,1010.91
2023-02-16T07:55:06.250Z,1010.88
2023-02-16T07:56:06.214Z,1010.87
2023-02-16T07:57:06.184Z,1010.92
2023-02-16T07:58:06.166Z,1010.91
2023-02-16T07:59:06.116Z,1010.9
2023-02-16T08:00:06.086Z,1010.91
2023-02-16T08:01:06.455Z,1010.88
2023-02-16T08:02:06.130Z,1010.81
2023-02-16T08:03:06.167Z,1010.88
2023-02-16T08:04:05.961Z,1010.84
2023-02-16T08:05:05.927Z,1010.82
2023-02-16T08:06:05.902Z,1010.75
2023-02-16T08:07:05.863Z,1010.77
2023-02-16T08:08:05.860Z,1010.74
2023-02-16T08:09:05.836Z,1010.77
2023-02-16T08:10:05.775Z,1010.73
2023-02-16T08:11:06.049Z,1010.73
2023-02-16T08:12:05.713Z,1010.71
2023-02-16T08:13:05.676Z,1010.66
2023-02-16T08:14:05.651Z,1010.71
2023-02-16T08:15:05.616Z,1010.68
2023-02-16T08:16:05.961Z,1010.65
2023-02-16T08:17:05.771Z,1010.67
2023-02-16T08:18:05.553Z,1010.64
2023-02-16T08:19:05.493Z,1010.58
2023-02-16T08:20:05.464Z,1010.6
2023-02-16T08:21:05.462Z,1010.59
2023-02-16T08:22:05.468Z,1010.59
2023-02-16T08:23:05.382Z,1010.61
2023-02-16T08:24:05.354Z,1010.64
2023-02-16T08:25:06.932Z,1010.64
2023-02-16T08:26:05.722Z,1010.65
2023-02-16T08:27:05.247Z,1010.66
2023-02-16T08:28:05.218Z,1010.68
2023-02-16T08:29:05.183Z,1010.64
2023-02-16T08:30:05.249Z,1010.69
2023-02-16T08:31:05.247Z,1010.67
2023-02-16T08:32:05.129Z,1010.72
2023-02-16T08:33:05.064Z,1010.74
2023-02-16T08:34:05.060Z,1010.73
2023-02-16T08:35:05.002Z,1010.72
2023-02-16T08:36:05.279Z,1010.74
2023-02-16T08:37:04.955Z,1010.74
2023-02-16T08:38:04.907Z,1010.75
2023-02-16T08:39:04.878Z,1010.74
2023-02-16T08:40:04.846Z,1010.76
2023-02-16T08:41:04.817Z,1010.79
2023-02-16T08:42:04.793Z,1010.77
2023-02-16T08:43:04.757Z,1010.76
2023-02-16T08:44:04.733Z,1010.74
2023-02-16T08:45:04.694Z,1010.78
2023-02-16T08:46:04.987Z,1010.81
2023-02-16T08:47:04.634Z,1010.86
2023-02-16T08:48:04.601Z,1010.9
2023-02-16T08:49:04.570Z,1010.9
2023-02-16T08:50:04.628Z,1010.88
2023-02-16T08:51:04.512Z,1010.95
2023-02-16T08:52:04.482Z,1010.94
2023-02-16T08:53:04.448Z,1010.91
2023-02-16T08:54:05.956Z,1010.91
2023-02-16T08:55:04.388Z,1010.93
2023-02-16T08:56:04.610Z,1010.96
2023-02-16T08:57:04.355Z,1010.95
2023-02-16T08:58:04.297Z,1010.97
2023-02-16T08:59:04.267Z,1010.92
2023-02-16T09:00:04.236Z,1010.94
2023-02-16T09:01:04.210Z,1010.96
2023-02-16T09:02:04.237Z,1010.94
2023-02-16T09:03:04.150Z,1010.91
2023-02-16T09:04:04.117Z,1010.95
2023-02-16T09:05:04.088Z,1010.92
2023-02-16T09:06:04.651Z,1010.95
2023-02-16T09:07:04.027Z,1010.97
2023-02-16T09:08:03.998Z,1011.02
2023-02-16T09:09:03.968Z,1011.06
2023-02-16T09:10:03.938Z,1011.03
2023-02-16T09:11:04.159Z,1011
2023-02-16T09:12:03.878Z,1010.99
2023-02-16T09:13:03.853Z,1011.04
2023-02-16T09:14:03.817Z,1011.01
2023-02-16T09:15:03.791Z,1011.1
2023-02-16T09:16:03.972Z,1011.13
2023-02-16T09:17:03.843Z,1011.13
2023-02-16T09:18:03.709Z,1011.13
2023-02-16T09:19:03.674Z,1011.11
2023-02-16T09:20:03.642Z,1011.09
2023-02-16T09:21:03.615Z,1011.06
2023-02-16T09:22:03.613Z,1011.08
2023-02-16T09:23:03.555Z,1011.1
2023-02-16T09:24:03.571Z,1011.06
2023-02-16T09:25:03.501Z,1011.1
2023-02-16T09:26:03.810Z,1011.04
2023-02-16T09:27:03.438Z,1011.03
2023-02-16T09:28:03.469Z,1011.01
2023-02-16T09:29:03.382Z,1011.01
2023-02-16T09:30:03.399Z,1011.01
2023-02-16T09:31:03.406Z,1011
2023-02-16T09:32:03.371Z,1010.99
2023-02-16T09:33:03.313Z,1010.97
2023-02-16T09:34:03.240Z,1010.98
2023-02-16T09:35:03.204Z,1010.98
2023-02-16T09:36:03.506Z,1010.99
2023-02-16T09:37:03.148Z,1010.98
2023-02-16T09:38:03.162Z,1011
2023-02-16T09:39:03.092Z,1010.99
2023-02-16T09:40:03.098Z,1010.97
2023-02-16T09:41:03.033Z,1011.03
2023-02-16T09:42:03.005Z,1011.01
2023-02-16T09:43:02.985Z,1010.98
2023-02-16T09:44:02.946Z,1011
2023-02-16T09:45:02.914Z,1010.95
2023-02-16T09:46:03.319Z,1011
2023-02-16T09:47:02.860Z,1010.98
2023-02-16T09:48:02.832Z,1010.99
2023-02-16T09:49:02.852Z,1010.98
2023-02-16T09:50:02.774Z,1011.06
2023-02-16T09:51:02.759Z,1010.93
2023-02-16T09:52:02.718Z,1010.99
2023-02-16T09:53:02.687Z,1010.96
2023-02-16T09:54:02.692Z,1011.03
2023-02-16T09:55:02.631Z,1010.99
2023-02-16T09:56:02.948Z,1010.88
2023-02-16T09:57:02.580Z,1010.94
2023-02-16T09:58:02.549Z,1010.95
2023-02-16T09:59:02.532Z,1011.03
2023-02-16T10:00:02.540Z,1010.94
2023-02-16T10:01:02.487Z,1010.95
2023-02-16T10:02:02.442Z,1010.95
2023-02-16T10:03:02.410Z,1010.97
2023-02-16T10:04:02.408Z,1011
2023-02-16T10:05:02.355Z,1010.96
2023-02-16T10:06:02.644Z,1010.99
2023-02-16T10:07:02.299Z,1011.04
2023-02-16T10:08:02.277Z,1011.04
2023-02-16T10:09:02.243Z,1011.04
2023-02-16T10:10:02.297Z,1011.18
2023-02-16T10:11:02.393Z,1011.07
2023-02-16T10:12:02.172Z,1011.05
2023-02-16T10:13:02.130Z,1011.09
2023-02-16T10:14:02.206Z,1011.07
2023-02-16T10:15:02.076Z,1011.1
2023-02-16T10:16:02.073Z,1011.12
2023-02-16T10:17:02.035Z,1011.15
2023-02-16T10:18:02.010Z,1011.15
2023-02-16T10:19:01.968Z,1011.2
2023-02-16T10:20:01.943Z,1011.14
2023-02-16T10:21:02.086Z,1011.15
2023-02-16T10:22:01.883Z,1011.16
2023-02-16T10:23:01.860Z,1011.17
2023-02-16T10:24:01.825Z,1011.17
2023-02-16T10:25:01.799Z,1011.24
2023-02-16T10:26:01.895Z,1011.26
2023-02-16T10:28:01.717Z,1011.29
2023-02-16T10:29:01.684Z,1011.27
2023-02-16T10:30:01.677Z,1011.31
2023-02-16T10:31:01.709Z,1011.32
2023-02-16T10:32:01.726Z,1011.33
2023-02-16T10:33:01.574Z,1011.34
2023-02-16T10:34:01.547Z,1011.35
2023-02-16T10:35:01.524Z,1011.32
2023-02-16T10:36:01.497Z,1011.33
2023-02-16T10:37:01.463Z,1011.27
2023-02-16T10:38:01.437Z,1011.33
2023-02-16T10:39:01.407Z,1011.25
2023-02-16T10:40:01.397Z,1011.28
2023-02-16T10:41:01.447Z,1011.28
2023-02-16T10:42:01.355Z,1011.32
2023-02-16T10:43:01.296Z,1011.3
2023-02-16T10:44:01.274Z,1011.28
2023-02-16T10:45:01.238Z,1011.27
2023-02-16T10:46:01.269Z,1011.24
2023-02-16T10:47:01.184Z,1011.27
2023-02-16T10:48:01.167Z,1011.23
2023-02-16T10:49:01.124Z,1011.15
2023-02-16T10:50:01.113Z,1011.18
2023-02-16T10:51:01.069Z,1011.22
2023-02-16T10:52:01.045Z,1011.19
2023-02-16T10:53:01.025Z,1011.27
2023-02-16T10:54:00.983Z,1011.24
2023-02-16T10:55:00.956Z,1011.23
2023-02-16T10:56:00.943Z,1011.22
2023-02-16T10:57:01.136Z,1011.25
2023-02-16T10:58:00.899Z,1011.22
2023-02-16T10:59:00.838Z,1011.23
2023-02-16T11:00:00.811Z,1011.25
2023-02-16T11:01:00.785Z,1011.32
2023-02-16T11:02:00.769Z,1011.24
2023-02-16T11:03:00.727Z,1011.29
2023-02-16T11:04:00.753Z,1011.27
2023-02-16T11:05:00.666Z,1011.28
2023-02-16T11:06:00.640Z,1011.33
2023-02-16T11:07:00.610Z,1011.33
2023-02-16T11:08:00.580Z,1011.31
2023-02-16T11:09:00.551Z,1011.3
2023-02-16T11:10:00.524Z,1011.29
2023-02-16T11:11:00.493Z,1011.32
2023-02-16T11:12:00.545Z,1011.3
2023-02-16T11:13:00.437Z,1011.25
2023-02-16T11:14:00.433Z,1011.19
2023-02-16T11:15:00.379Z,1011.23
2023-02-16T11:16:00.408Z,1011.2
2023-02-16T11:17:00.320Z,1011.24
2023-02-16T11:18:00.358Z,1011.22
2023-02-16T11:19:00.264Z,1011.19
2023-02-16T11:20:01.903Z,1011.2
2023-02-16T11:21:00.208Z,1011.21
2023-02-16T11:22:00.174Z,1011.24
2023-02-16T11:23:00.152Z,1011.15
2023-02-16T11:24:00.120Z,1011.14
2023-02-16T11:25:00.148Z,1011.13
2023-02-16T11:26:00.083Z,1011.11
2023-02-16T11:27:00.037Z,1011.01
2023-02-16T11:28:00.012Z,1011.08
2023-02-16T11:28:59.982Z,1011
2023-02-16T11:29:59.978Z,1011.04
2023-02-16T11:30:59.990Z,1010.97
2023-02-16T11:32:00.046Z,1010.99
2023-02-16T11:32:59.872Z,1010.98
2023-02-16T11:33:59.857Z,1011.04
2023-02-16T11:34:59.821Z,1011.03
2023-02-16T11:35:59.788Z,1011.03
2023-02-16T11:36:59.761Z,1011.05
2023-02-16T11:37:59.733Z,1011.03
2023-02-16T11:38:59.714Z,1011.06
2023-02-16T11:39:59.681Z,1011
2023-02-16T11:40:59.649Z,1011.01
2023-02-16T11:41:59.619Z,1011
2023-02-16T11:42:59.629Z,1010.99
2023-02-16T11:43:59.564Z,1011.06
2023-02-16T11:44:59.686Z,1011.03
2023-02-16T11:45:59.532Z,1011
2023-02-16T11:46:59.490Z,1010.94
2023-02-16T11:47:59.449Z,1011.06
2023-02-16T11:48:59.423Z,1010.89
2023-02-16T11:49:59.394Z,1010.99
2023-02-16T11:50:59.366Z,1010.86
2023-02-16T11:51:59.337Z,1010.89
2023-02-16T11:52:59.310Z,1010.94
2023-02-16T11:53:59.284Z,1010.89
2023-02-16T11:54:59.256Z,1010.85
2023-02-16T11:55:59.228Z,1010.82
2023-02-16T11:56:59.203Z,1010.79
2023-02-16T11:57:59.175Z,1010.78
2023-02-16T11:58:59.147Z,1010.78
2023-02-16T11:59:59.123Z,1010.77
2023-02-16T12:00:59.095Z,1010.72
2023-02-16T12:01:59.090Z,1010.72
2023-02-16T12:02:59.058Z,1010.69
2023-02-16T12:03:59.044Z,1010.71
2023-02-16T12:04:59.019Z,1010.66
2023-02-16T12:05:58.961Z,1010.67
2023-02-16T12:06:58.930Z,1010.65
2023-02-16T12:07:58.906Z,1010.76
2023-02-16T12:08:58.878Z,1010.76